sensor_id;sensor_type;location;lat;lon;timestamp;pressure;altitude;pressure_sealevel;temperature;humidity
80678;BME280;70042;52.494;5.502;2024-03-06T00:00:25;101958.31;;;17.98;62.69
80678;BME280;70042;52.494;5.502;2024-03-06T00:02:51;101953.91;;;17.97;62.19
80678;BME280;70042;52.494;5.502;2024-03-06T00:05:17;101953.06;;;17.96;62.51
80678;BME280;70042;52.494;5.502;2024-03-06T00:07:42;101968.06;;;17.96;62.45
80678;BME280;70042;52.494;5.502;2024-03-06T00:10:08;101962.75;;;17.96;62.66
80678;BME280;70042;52.494;5.502;2024-03-06T00:12:33;101959.22;;;17.95;62.47
80678;BME280;70042;52.494;5.502;2024-03-06T00:14:59;101971.56;;;17.95;62.32
80678;BME280;70042;52.494;5.502;2024-03-06T00:17:25;101955.72;;;17.95;62.58
80678;BME280;70042;52.494;5.502;2024-03-06T00:19:51;101964.53;;;17.95;62.80
80678;BME280;70042;52.494;5.502;2024-03-06T00:22:16;101967.16;;;17.94;62.29
80678;BME280;70042;52.494;5.502;2024-03-06T00:24:42;101966.31;;;17.92;62.56
80678;BME280;70042;52.494;5.502;2024-03-06T00:27:07;101964.53;;;17.91;62.86
80678;BME280;70042;52.494;5.502;2024-03-06T00:29:33;101968.94;;;17.90;62.76
80678;BME280;70042;52.494;5.502;2024-03-06T00:32:01;101971.63;;;17.89;62.81
80678;BME280;70042;52.494;5.502;2024-03-06T00:34:27;101969.88;;;17.88;62.35
80678;BME280;70042;52.494;5.502;2024-03-06T00:36:52;101976.91;;;17.89;62.70
80678;BME280;70042;52.494;5.502;2024-03-06T00:39:19;101975.16;;;17.88;62.63
80678;BME280;70042;52.494;5.502;2024-03-06T00:41:44;101982.19;;;17.89;62.65
80678;BME280;70042;52.494;5.502;2024-03-06T00:44:10;101989.25;;;17.90;62.54
80678;BME280;70042;52.494;5.502;2024-03-06T00:46:35;101989.28;;;17.87;62.45
80678;BME280;70042;52.494;5.502;2024-03-06T00:49:01;101991.03;;;17.86;62.35
80678;BME280;70042;52.494;5.502;2024-03-06T00:51:26;101991.94;;;17.87;62.48
80678;BME280;70042;52.494;5.502;2024-03-06T00:53:51;101997.22;;;17.87;62.56
80678;BME280;70042;52.494;5.502;2024-03-06T00:56:17;101999.84;;;17.87;62.80
80678;BME280;70042;52.494;5.502;2024-03-06T00:58:42;101999.84;;;17.87;62.73
80678;BME280;70042;52.494;5.502;2024-03-06T01:01:08;102009.53;;;17.86;62.60
80678;BME280;70042;52.494;5.502;2024-03-06T01:03:34;102006.00;;;17.84;62.89
80678;BME280;70042;52.494;5.502;2024-03-06T01:05:59;102010.44;;;17.84;62.62
80678;BME280;70042;52.494;5.502;2024-03-06T01:08:25;102013.09;;;17.82;62.90
80678;BME280;70042;52.494;5.502;2024-03-06T01:10:51;102012.22;;;17.82;62.49
80678;BME280;70042;52.494;5.502;2024-03-06T01:13:17;102017.50;;;17.82;62.60
80678;BME280;70042;52.494;5.502;2024-03-06T01:15:43;102014.88;;;17.80;62.64
80678;BME280;70042;52.494;5.502;2024-03-06T01:18:09;102010.44;;;17.81;62.65
80678;BME280;70042;52.494;5.502;2024-03-06T01:20:35;102015.72;;;17.81;62.54
80678;BME280;70042;52.494;5.502;2024-03-06T01:23:01;102010.44;;;17.81;62.87
80678;BME280;70042;52.494;5.502;2024-03-06T01:25:27;102014.88;;;17.79;62.80
80678;BME280;70042;52.494;5.502;2024-03-06T01:27:52;102014.00;;;17.80;63.05
80678;BME280;70042;52.494;5.502;2024-03-06T01:30:17;102015.72;;;17.81;63.03
80678;BME280;70042;52.494;5.502;2024-03-06T01:32:43;102031.59;;;17.81;63.11
80678;BME280;70042;52.494;5.502;2024-03-06T01:35:09;102031.59;;;17.81;62.97
80678;BME280;70042;52.494;5.502;2024-03-06T01:37:34;102026.31;;;17.81;62.48
80678;BME280;70042;52.494;5.502;2024-03-06T01:39:59;102027.19;;;17.81;62.95
80678;BME280;70042;52.494;5.502;2024-03-06T01:42:25;102027.22;;;17.80;62.83
80678;BME280;70042;52.494;5.502;2024-03-06T01:44:50;102036.03;;;17.79;62.95
80678;BME280;70042;52.494;5.502;2024-03-06T01:47:16;102036.06;;;17.77;62.92
80678;BME280;70042;52.494;5.502;2024-03-06T01:49:42;102037.81;;;17.77;62.94
80678;BME280;70042;52.494;5.502;2024-03-06T01:52:09;102035.16;;;17.77;62.88
80678;BME280;70042;52.494;5.502;2024-03-06T01:54:37;102039.56;;;17.76;62.91
80678;BME280;70042;52.494;5.502;2024-03-06T01:57:03;102023.72;;;17.75;62.92
80678;BME280;70042;52.494;5.502;2024-03-06T01:59:29;102036.91;;;17.75;62.68
80678;BME280;70042;52.494;5.502;2024-03-06T02:01:55;102036.91;;;17.75;62.49
80678;BME280;70042;52.494;5.502;2024-03-06T02:04:22;102038.69;;;17.76;62.63
80678;BME280;70042;52.494;5.502;2024-03-06T02:06:49;102033.41;;;17.76;63.00
80678;BME280;70042;52.494;5.502;2024-03-06T02:09:14;102038.69;;;17.76;62.78
80678;BME280;70042;52.494;5.502;2024-03-06T02:11:40;102038.69;;;17.76;62.88
80678;BME280;70042;52.494;5.502;2024-03-06T02:14:07;102047.50;;;17.76;62.63
80678;BME280;70042;52.494;5.502;2024-03-06T02:16:35;102046.63;;;17.77;63.01
80678;BME280;70042;52.494;5.502;2024-03-06T02:19:01;102046.63;;;17.77;62.47
80678;BME280;70042;52.494;5.502;2024-03-06T02:21:26;102051.03;;;17.75;62.54
80678;BME280;70042;52.494;5.502;2024-03-06T02:23:52;102051.06;;;17.74;62.61
80678;BME280;70042;52.494;5.502;2024-03-06T02:26:18;102052.78;;;17.75;62.79
80678;BME280;70042;52.494;5.502;2024-03-06T02:28:51;102058.97;;;17.74;62.69
80678;BME280;70042;52.494;5.502;2024-03-06T02:31:17;102053.69;;;17.72;62.92
80678;BME280;70042;52.494;5.502;2024-03-06T02:33:46;102051.06;;;17.71;62.70
80678;BME280;70042;52.494;5.502;2024-03-06T02:36:15;102058.97;;;17.72;62.89
80678;BME280;70042;52.494;5.502;2024-03-06T02:38:42;102047.50;;;17.72;62.82
80678;BME280;70042;52.494;5.502;2024-03-06T02:41:07;102050.16;;;17.72;62.94
80678;BME280;70042;52.494;5.502;2024-03-06T02:43:33;102059.84;;;17.73;62.85
80678;BME280;70042;52.494;5.502;2024-03-06T02:45:59;102059.84;;;17.73;62.54
80678;BME280;70042;52.494;5.502;2024-03-06T02:48:24;102055.44;;;17.72;63.08
80678;BME280;70042;52.494;5.502;2024-03-06T02:50:50;102060.75;;;17.73;62.50
80678;BME280;70042;52.494;5.502;2024-03-06T02:53:15;102059.84;;;17.73;62.89
80678;BME280;70042;52.494;5.502;2024-03-06T02:55:41;102060.75;;;17.73;62.79
80678;BME280;70042;52.494;5.502;2024-03-06T02:58:06;102054.56;;;17.73;62.47
80678;BME280;70042;52.494;5.502;2024-03-06T03:00:32;102066.03;;;17.73;62.36
80678;BME280;70042;52.494;5.502;2024-03-06T03:02:57;102051.94;;;17.71;62.81
80678;BME280;70042;52.494;5.502;2024-03-06T03:05:23;102064.28;;;17.71;62.80
80678;BME280;70042;52.494;5.502;2024-03-06T03:07:49;102058.13;;;17.70;62.78
80678;BME280;70042;52.494;5.502;2024-03-06T03:10:15;102059.00;;;17.69;62.93
80678;BME280;70042;52.494;5.502;2024-03-06T03:12:40;102061.66;;;17.68;62.72
80678;BME280;70042;52.494;5.502;2024-03-06T03:15:06;102064.31;;;17.68;62.94
80678;BME280;70042;52.494;5.502;2024-03-06T03:17:32;102066.06;;;17.67;62.56
80678;BME280;70042;52.494;5.502;2024-03-06T03:19:59;102064.31;;;17.68;62.60
80678;BME280;70042;52.494;5.502;2024-03-06T03:22:24;102063.41;;;17.69;62.83
80678;BME280;70042;52.494;5.502;2024-03-06T03:24:50;102063.41;;;17.69;62.93
80678;BME280;70042;52.494;5.502;2024-03-06T03:27:15;102064.28;;;17.69;62.67
80678;BME280;70042;52.494;5.502;2024-03-06T03:29:41;102066.03;;;17.69;62.61
80678;BME280;70042;52.494;5.502;2024-03-06T03:32:06;102070.44;;;17.70;62.68
80678;BME280;70042;52.494;5.502;2024-03-06T03:34:34;102059.00;;;17.69;62.53
80678;BME280;70042;52.494;5.502;2024-03-06T03:37:01;102075.75;;;17.70;62.46
80678;BME280;70042;52.494;5.502;2024-03-06T03:39:26;102070.44;;;17.68;62.75
80678;BME280;70042;52.494;5.502;2024-03-06T03:41:52;102071.34;;;17.67;62.97
80678;BME280;70042;52.494;5.502;2024-03-06T03:44:18;102072.22;;;17.68;62.88
80678;BME280;70042;52.494;5.502;2024-03-06T03:46:44;102075.78;;;17.64;62.67
80678;BME280;70042;52.494;5.502;2024-03-06T03:49:09;102074.88;;;17.63;62.69
80678;BME280;70042;52.494;5.502;2024-03-06T03:51:38;102080.19;;;17.63;62.99
80678;BME280;70042;52.494;5.502;2024-03-06T03:54:03;102079.28;;;17.63;63.02
80678;BME280;70042;52.494;5.502;2024-03-06T03:56:29;102075.78;;;17.64;62.55
80678;BME280;70042;52.494;5.502;2024-03-06T03:58:56;102081.06;;;17.64;62.86
80678;BME280;70042;52.494;5.502;2024-03-06T04:01:22;102088.97;;;17.64;62.75
80678;BME280;70042;52.494;5.502;2024-03-06T04:03:48;102076.66;;;17.64;62.46
80678;BME280;70042;52.494;5.502;2024-03-06T04:06:14;102083.69;;;17.64;62.69
80678;BME280;70042;52.494;5.502;2024-03-06T04:08:39;102081.06;;;17.64;62.60
80678;BME280;70042;52.494;5.502;2024-03-06T04:11:06;102080.19;;;17.65;62.85
80678;BME280;70042;52.494;5.502;2024-03-06T04:13:35;102088.97;;;17.65;62.88
80678;BME280;70042;52.494;5.502;2024-03-06T04:16:01;102085.47;;;17.65;62.69
80678;BME280;70042;52.494;5.502;2024-03-06T04:18:27;102085.47;;;17.65;62.49
80678;BME280;70042;52.494;5.502;2024-03-06T04:20:53;102083.69;;;17.62;63.03
80678;BME280;70042;52.494;5.502;2024-03-06T04:23:18;102077.56;;;17.62;63.01
80678;BME280;70042;52.494;5.502;2024-03-06T04:25:43;102083.72;;;17.61;62.76
80678;BME280;70042;52.494;5.502;2024-03-06T04:28:09;102086.34;;;17.61;62.64
80678;BME280;70042;52.494;5.502;2024-03-06T04:30:35;102081.09;;;17.57;62.64
80678;BME280;70042;52.494;5.502;2024-03-06T04:33:00;102090.75;;;17.60;62.72
80678;BME280;70042;52.494;5.502;2024-03-06T04:35:26;102095.16;;;17.59;62.80
80678;BME280;70042;52.494;5.502;2024-03-06T04:37:51;102092.53;;;17.59;62.86
80678;BME280;70042;52.494;5.502;2024-03-06T04:40:17;102099.56;;;17.61;62.62
80678;BME280;70042;52.494;5.502;2024-03-06T04:42:48;102102.22;;;17.61;62.78
80678;BME280;70042;52.494;5.502;2024-03-06T04:45:17;102100.44;;;17.59;62.79
80678;BME280;70042;52.494;5.502;2024-03-06T04:47:43;102107.50;;;17.61;62.38
80678;BME280;70042;52.494;5.502;2024-03-06T04:50:10;102116.31;;;17.61;62.54
80678;BME280;70042;52.494;5.502;2024-03-06T04:52:39;102118.06;;;17.61;62.70
80678;BME280;70042;52.494;5.502;2024-03-06T04:55:06;102111.03;;;17.59;62.78
80678;BME280;70042;52.494;5.502;2024-03-06T04:57:32;102119.84;;;17.58;62.81
80678;BME280;70042;52.494;5.502;2024-03-06T04:59:58;102123.38;;;17.57;62.73
80678;BME280;70042;52.494;5.502;2024-03-06T05:02:24;102133.94;;;17.57;62.94
80678;BME280;70042;52.494;5.502;2024-03-06T05:04:51;102135.69;;;17.55;63.04
80678;BME280;70042;52.494;5.502;2024-03-06T05:07:16;102138.34;;;17.55;62.73
80678;BME280;70042;52.494;5.502;2024-03-06T05:09:42;102142.78;;;17.55;62.91
80678;BME280;70042;52.494;5.502;2024-03-06T05:12:07;102141.84;;;17.54;62.57
80678;BME280;70042;52.494;5.502;2024-03-06T05:14:33;102142.72;;;17.53;62.97
80678;BME280;70042;52.494;5.502;2024-03-06T05:16:59;102145.38;;;17.53;62.61
80678;BME280;70042;52.494;5.502;2024-03-06T05:19:24;102149.78;;;17.53;62.93
80678;BME280;70042;52.494;5.502;2024-03-06T05:22:00;102150.66;;;17.53;62.47
80678;BME280;70042;52.494;5.502;2024-03-06T05:24:25;102145.38;;;17.52;63.00
80678;BME280;70042;52.494;5.502;2024-03-06T05:26:51;102145.38;;;17.53;62.79
80678;BME280;70042;52.494;5.502;2024-03-06T05:29:16;102152.41;;;17.54;62.61
80678;BME280;70042;52.494;5.502;2024-03-06T05:31:42;102148.00;;;17.53;62.61
80678;BME280;70042;52.494;5.502;2024-03-06T05:34:07;102155.06;;;17.51;62.79
80678;BME280;70042;52.494;5.502;2024-03-06T05:36:33;102160.34;;;17.51;62.63
80678;BME280;70042;52.494;5.502;2024-03-06T05:38:58;102153.31;;;17.50;62.76
80678;BME280;70042;52.494;5.502;2024-03-06T05:41:24;102155.09;;;17.48;62.58
80678;BME280;70042;52.494;5.502;2024-03-06T05:43:49;102162.13;;;17.46;62.78
80678;BME280;70042;52.494;5.502;2024-03-06T05:46:14;102162.13;;;17.46;63.05
80678;BME280;70042;52.494;5.502;2024-03-06T05:48:41;102170.97;;;17.45;63.05
80678;BME280;70042;52.494;5.502;2024-03-06T05:51:06;102169.19;;;17.46;62.96
80678;BME280;70042;52.494;5.502;2024-03-06T05:53:41;102175.34;;;17.46;62.52
80678;BME280;70042;52.494;5.502;2024-03-06T05:56:07;102183.28;;;17.45;62.87
80678;BME280;70042;52.494;5.502;2024-03-06T05:58:33;102186.78;;;17.47;62.45
80678;BME280;70042;52.494;5.502;2024-03-06T06:00:59;102188.53;;;17.46;62.65
80678;BME280;70042;52.494;5.502;2024-03-06T06:03:25;102191.19;;;17.46;62.91
80678;BME280;70042;52.494;5.502;2024-03-06T06:05:50;102192.09;;;17.45;62.64
80678;BME280;70042;52.494;5.502;2024-03-06T06:08:16;102185.91;;;17.46;62.99
80678;BME280;70042;52.494;5.502;2024-03-06T06:10:41;102189.44;;;17.45;62.47
80678;BME280;70042;52.494;5.502;2024-03-06T06:13:07;102193.84;;;17.45;62.83
80678;BME280;70042;52.494;5.502;2024-03-06T06:15:32;102197.38;;;17.44;62.66
80678;BME280;70042;52.494;5.502;2024-03-06T06:17:58;102202.66;;;17.42;62.52
80678;BME280;70042;52.494;5.502;2024-03-06T06:20:23;102207.94;;;17.42;62.55
80678;BME280;70042;52.494;5.502;2024-03-06T06:22:49;102205.31;;;17.41;62.58
80678;BME280;70042;52.494;5.502;2024-03-06T06:25:15;102214.97;;;17.40;62.93
80678;BME280;70042;52.494;5.502;2024-03-06T06:27:41;102223.81;;;17.42;62.95
80678;BME280;70042;52.494;5.502;2024-03-06T06:30:07;102223.81;;;17.42;62.99
80678;BME280;70042;52.494;5.502;2024-03-06T06:32:37;102224.69;;;17.41;62.45
80678;BME280;70042;52.494;5.502;2024-03-06T06:35:03;102232.59;;;17.41;62.84
80678;BME280;70042;52.494;5.502;2024-03-06T06:37:28;102234.38;;;17.42;62.54
80678;BME280;70042;52.494;5.502;2024-03-06T06:39:54;102232.59;;;17.41;62.62
80678;BME280;70042;52.494;5.502;2024-03-06T06:42:19;102244.06;;;17.42;62.75
80678;BME280;70042;52.494;5.502;2024-03-06T06:44:44;102250.22;;;17.42;62.81
80678;BME280;70042;52.494;5.502;2024-03-06T06:47:10;102253.72;;;17.43;62.64
80678;BME280;70042;52.494;5.502;2024-03-06T06:49:35;102257.25;;;17.40;62.72
80678;BME280;70042;52.494;5.502;2024-03-06T06:52:01;102260.81;;;17.39;62.63
80678;BME280;70042;52.494;5.502;2024-03-06T06:54:26;102266.09;;;17.39;62.78
80678;BME280;70042;52.494;5.502;2024-03-06T06:56:52;102271.34;;;17.38;62.51
80678;BME280;70042;52.494;5.502;2024-03-06T06:59:17;102275.75;;;17.37;62.65
80678;BME280;70042;52.494;5.502;2024-03-06T07:01:42;102278.41;;;17.37;62.67
80678;BME280;70042;52.494;5.502;2024-03-06T07:04:08;102281.94;;;17.38;62.92
80678;BME280;70042;52.494;5.502;2024-03-06T07:06:34;102290.72;;;17.38;62.51
80678;BME280;70042;52.494;5.502;2024-03-06T07:08:59;102278.41;;;17.39;62.63
80678;BME280;70042;52.494;5.502;2024-03-06T07:11:25;102288.97;;;17.39;62.44
80678;BME280;70042;52.494;5.502;2024-03-06T07:13:50;102293.34;;;17.40;62.51
80678;BME280;70042;52.494;5.502;2024-03-06T07:16:16;102294.25;;;17.40;62.51
80678;BME280;70042;52.494;5.502;2024-03-06T07:18:42;102296.00;;;17.41;62.97
80678;BME280;70042;52.494;5.502;2024-03-06T07:21:08;102294.25;;;17.43;62.78
80678;BME280;70042;52.494;5.502;2024-03-06T07:23:33;102299.53;;;17.43;62.59
80678;BME280;70042;52.494;5.502;2024-03-06T07:25:58;102299.53;;;17.45;62.89
80678;BME280;70042;52.494;5.502;2024-03-06T07:28:25;102311.00;;;17.45;62.95
80678;BME280;70042;52.494;5.502;2024-03-06T07:30:51;102314.50;;;17.47;62.89
80678;BME280;70042;52.494;5.502;2024-03-06T07:33:16;102312.75;;;17.51;62.76
80678;BME280;70042;52.494;5.502;2024-03-06T07:35:42;102322.44;;;17.50;63.01
80678;BME280;70042;52.494;5.502;2024-03-06T07:38:07;102310.97;;;17.53;62.73
80678;BME280;70042;52.494;5.502;2024-03-06T07:40:33;102321.56;;;17.56;62.84
80678;BME280;70042;52.494;5.502;2024-03-06T07:42:58;102322.44;;;17.56;62.56
80678;BME280;70042;52.494;5.502;2024-03-06T07:45:25;102326.84;;;17.59;62.57
80678;BME280;70042;52.494;5.502;2024-03-06T07:47:51;102340.06;;;17.59;62.55
80678;BME280;70042;52.494;5.502;2024-03-06T07:50:17;102337.44;;;17.61;62.42
80678;BME280;70042;52.494;5.502;2024-03-06T07:52:45;102348.91;;;17.61;62.61
80678;BME280;70042;52.494;5.502;2024-03-06T07:55:11;102338.31;;;17.63;62.80
80678;BME280;70042;52.494;5.502;2024-03-06T07:57:37;102337.44;;;17.64;63.01
80678;BME280;70042;52.494;5.502;2024-03-06T08:00:03;102355.94;;;17.64;63.09
80678;BME280;70042;52.494;5.502;2024-03-06T08:02:40;102350.66;;;17.64;63.06
80678;BME280;70042;52.494;5.502;2024-03-06T08:05:11;102358.56;;;17.64;62.75
80678;BME280;70042;52.494;5.502;2024-03-06T08:07:39;102357.72;;;17.62;63.20
80678;BME280;70042;52.494;5.502;2024-03-06T08:10:10;102357.72;;;17.58;63.28
80678;BME280;70042;52.494;5.502;2024-03-06T08:12:41;102364.75;;;17.56;62.93
80678;BME280;70042;52.494;5.502;2024-03-06T08:15:11;102355.91;;;17.54;63.02
80678;BME280;70042;52.494;5.502;2024-03-06T08:17:42;102364.69;;;17.53;63.41
80678;BME280;70042;52.494;5.502;2024-03-06T08:20:08;102371.75;;;17.53;63.22
80678;BME280;70042;52.494;5.502;2024-03-06T08:22:36;102377.06;;;17.51;63.10
80678;BME280;70042;52.494;5.502;2024-03-06T08:25:06;102374.38;;;17.50;63.46
80678;BME280;70042;52.494;5.502;2024-03-06T08:27:32;102375.28;;;17.50;63.34
80678;BME280;70042;52.494;5.502;2024-03-06T08:29:58;102373.50;;;17.49;63.32
80678;BME280;70042;52.494;5.502;2024-03-06T08:32:23;102382.34;;;17.51;63.60
80678;BME280;70042;52.494;5.502;2024-03-06T08:34:48;102387.63;;;17.51;63.47
80678;BME280;70042;52.494;5.502;2024-03-06T08:37:14;102392.03;;;17.51;63.38
80678;BME280;70042;52.494;5.502;2024-03-06T08:39:39;102384.06;;;17.52;63.20
80678;BME280;70042;52.494;5.502;2024-03-06T08:42:05;102388.50;;;17.52;63.42
80678;BME280;70042;52.494;5.502;2024-03-06T08:44:31;102389.38;;;17.52;63.28
80678;BME280;70042;52.494;5.502;2024-03-06T08:46:56;102398.19;;;17.54;63.90
80678;BME280;70042;52.494;5.502;2024-03-06T08:49:21;102401.72;;;17.63;63.99
80678;BME280;70042;52.494;5.502;2024-03-06T08:51:47;102407.03;;;17.66;63.99
80678;BME280;70042;52.494;5.502;2024-03-06T08:54:12;102399.97;;;17.69;64.73
80678;BME280;70042;52.494;5.502;2024-03-06T08:56:38;102400.84;;;17.70;64.40
80678;BME280;70042;52.494;5.502;2024-03-06T08:59:03;102414.06;;;17.70;64.02
80678;BME280;70042;52.494;5.502;2024-03-06T09:01:29;102410.56;;;17.71;63.95
80678;BME280;70042;52.494;5.502;2024-03-06T09:03:55;102407.00;;;17.72;63.75
80678;BME280;70042;52.494;5.502;2024-03-06T09:06:22;102413.22;;;17.71;63.52
80678;BME280;70042;52.494;5.502;2024-03-06T09:08:48;102421.13;;;17.71;64.04
80678;BME280;70042;52.494;5.502;2024-03-06T09:11:14;102422.00;;;17.73;63.78
80678;BME280;70042;52.494;5.502;2024-03-06T09:13:39;102422.00;;;17.76;63.93
80678;BME280;70042;52.494;5.502;2024-03-06T09:16:05;102422.88;;;17.78;63.67
80678;BME280;70042;52.494;5.502;2024-03-06T09:18:30;102421.13;;;17.77;63.66
80678;BME280;70042;52.494;5.502;2024-03-06T09:20:56;102425.50;;;17.75;63.39
80678;BME280;70042;52.494;5.502;2024-03-06T09:23:21;102435.22;;;17.76;63.27
80678;BME280;70042;52.494;5.502;2024-03-06T09:25:47;102432.56;;;17.73;63.16
80678;BME280;70042;52.494;5.502;2024-03-06T09:28:13;102437.00;;;17.71;63.07
80678;BME280;70042;52.494;5.502;2024-03-06T09:30:39;102446.69;;;17.70;63.22
80678;BME280;70042;52.494;5.502;2024-03-06T09:33:06;102457.25;;;17.69;63.28
80678;BME280;70042;52.494;5.502;2024-03-06T09:35:40;102452.84;;;17.66;63.03
80678;BME280;70042;52.494;5.502;2024-03-06T09:38:11;102457.25;;;17.66;62.66
80678;BME280;70042;52.494;5.502;2024-03-06T09:40:38;102449.31;;;17.66;62.31
80678;BME280;70042;52.494;5.502;2024-03-06T09:43:05;102466.94;;;17.67;62.48
80678;BME280;70042;52.494;5.502;2024-03-06T09:45:32;102462.53;;;17.67;62.25
80678;BME280;70042;52.494;5.502;2024-03-06T09:47:57;102464.31;;;17.70;62.66
80678;BME280;70042;52.494;5.502;2024-03-06T09:50:24;102459.88;;;17.69;62.29
80678;BME280;70042;52.494;5.502;2024-03-06T09:52:51;102460.78;;;17.69;62.34
80678;BME280;70042;52.494;5.502;2024-03-06T09:55:19;102473.13;;;17.70;62.23
80678;BME280;70042;52.494;5.502;2024-03-06T09:57:45;102474.88;;;17.70;62.33
80678;BME280;70042;52.494;5.502;2024-03-06T10:00:10;102478.41;;;17.70;62.76
80678;BME280;70042;52.494;5.502;2024-03-06T10:02:48;102480.16;;;17.70;62.43
80678;BME280;70042;52.494;5.502;2024-03-06T10:05:23;102477.53;;;17.70;62.58
80678;BME280;70042;52.494;5.502;2024-03-06T10:07:52;102485.44;;;17.70;62.63
80678;BME280;70042;52.494;5.502;2024-03-06T10:10:19;102487.22;;;17.69;62.85
80678;BME280;70042;52.494;5.502;2024-03-06T10:12:45;102490.75;;;17.71;62.86
80678;BME280;70042;52.494;5.502;2024-03-06T10:15:13;102483.69;;;17.70;62.95
80678;BME280;70042;52.494;5.502;2024-03-06T10:17:39;102486.31;;;17.72;62.75
80678;BME280;70042;52.494;5.502;2024-03-06T10:20:21;102485.47;;;17.71;62.99
80678;BME280;70042;52.494;5.502;2024-03-06T10:22:50;102488.97;;;17.72;62.94
80678;BME280;70042;52.494;5.502;2024-03-06T10:25:22;102490.75;;;17.71;62.80
80678;BME280;70042;52.494;5.502;2024-03-06T10:28:10;102493.38;;;17.73;62.70
80678;BME280;70042;52.494;5.502;2024-03-06T10:30:38;102494.28;;;17.73;62.89
80678;BME280;70042;52.494;5.502;2024-03-06T10:33:08;102506.59;;;17.73;62.99
80678;BME280;70042;52.494;5.502;2024-03-06T10:35:34;102495.16;;;17.74;62.75
